createdAt,value
2023-01-19T00:00:19.200Z,51.49
2023-01-19T00:01:19.941Z,51.59
2023-01-19T00:02:21.813Z,51.49
2023-01-19T00:03:23.643Z,51.49
2023-01-19T00:04:25.450Z,51.49
2023-01-19T00:05:26.218Z,51.59
2023-01-19T00:06:28.079Z,51.59
2023-01-19T00:07:29.929Z,51.49
2023-01-19T00:08:31.762Z,51.59
2023-01-19T00:09:33.611Z,51.49
2023-01-19T00:10:35.408Z,51.49
2023-01-19T00:11:36.149Z,51.49
2023-01-19T00:12:37.987Z,51.49
2023-01-19T00:13:39.808Z,51.59
2023-01-19T00:14:41.656Z,51.59
2023-01-19T00:15:43.496Z,51.49
2023-01-19T00:16:44.258Z,51.49
2023-01-19T00:17:46.043Z,51.49
2023-01-19T00:18:47.838Z,51.49
2023-01-19T00:19:49.650Z,51.49
2023-01-19T00:20:50.391Z,51.49
2023-01-19T00:21:52.189Z,51.59
2023-01-19T00:22:53.977Z,51.49
2023-01-19T00:23:55.803Z,51.49
2023-01-19T00:24:57.666Z,51.49
2023-01-19T00:25:58.421Z,51.49
2023-01-19T00:27:00.224Z,51.39
2023-01-19T00:28:02.174Z,51.49
2023-01-19T00:29:03.987Z,51.49
2023-01-19T00:30:05.802Z,51.49
2023-01-19T00:31:06.599Z,51.49
2023-01-19T00:32:08.446Z,51.49
2023-01-19T00:33:10.237Z,51.49
2023-01-19T00:34:12.031Z,51.49
2023-01-19T00:35:13.854Z,51.49
2023-01-19T00:36:15.644Z,51.49
2023-01-19T00:37:16.389Z,51.49
2023-01-19T00:38:17.850Z,51.49
2023-01-19T00:39:19.696Z,51.39
2023-01-19T00:40:20.477Z,51.49
2023-01-19T00:41:22.293Z,51.49
2023-01-19T00:42:24.084Z,51.39
2023-01-19T00:43:25.915Z,51.49
2023-01-19T00:44:27.744Z,51.49
2023-01-19T00:45:28.586Z,51.39
2023-01-19T00:46:30.417Z,51.39
2023-01-19T00:47:32.214Z,51.39
2023-01-19T00:48:34.007Z,51.49
2023-01-19T00:49:35.848Z,51.39
2023-01-19T00:50:37.672Z,51.39
2023-01-19T00:51:38.410Z,51.49
2023-01-19T00:52:39.907Z,51.37
2023-01-19T00:53:41.710Z,51.39
2023-01-19T00:54:42.445Z,51.39
2023-01-19T00:55:44.279Z,51.49
2023-01-19T00:56:46.086Z,51.39
2023-01-19T00:57:47.895Z,51.59
2023-01-19T00:58:49.810Z,51.49
2023-01-19T00:59:51.632Z,51.39
2023-01-19T01:00:52.435Z,51.39
2023-01-19T01:01:54.486Z,51.39
2023-01-19T01:02:54.382Z,51.49
2023-01-19T01:03:56.198Z,51.49
2023-01-19T01:04:57.993Z,51.46
2023-01-19T01:05:59.818Z,51.39
2023-01-19T01:07:01.636Z,51.49
2023-01-19T01:08:02.402Z,51.37
2023-01-19T01:09:04.194Z,51.39
2023-01-19T01:10:05.998Z,51.39
2023-01-19T01:11:07.834Z,51.37
2023-01-19T01:12:09.688Z,51.49
2023-01-19T01:13:21.323Z,51.39
2023-01-19T01:14:11.809Z,51.37
2023-01-19T01:15:13.530Z,51.39
2023-01-19T01:16:15.494Z,51.37
2023-01-19T01:17:17.348Z,51.39
2023-01-19T01:18:19.146Z,51.39
2023-01-19T01:19:20.377Z,51.39
2023-01-19T01:20:21.132Z,51.39
2023-01-19T01:21:21.884Z,51.29
2023-01-19T01:22:23.684Z,51.39
2023-01-19T01:23:25.514Z,51.49
2023-01-19T01:24:27.335Z,51.39
2023-01-19T01:25:29.140Z,51.37
2023-01-19T01:26:29.895Z,51.26
2023-01-19T01:27:31.702Z,51.37
2023-01-19T01:28:33.555Z,51.26
2023-01-19T01:29:35.532Z,51.26
2023-01-19T01:30:37.365Z,51.26
2023-01-19T01:31:39.223Z,51.39
2023-01-19T01:32:39.959Z,51.49
2023-01-19T01:33:42.119Z,51.29
2023-01-19T01:34:41.841Z,51.39
2023-01-19T01:35:43.644Z,51.49
2023-01-19T01:36:45.460Z,51.49
2023-01-19T01:37:47.264Z,51.49
2023-01-19T01:38:49.059Z,51.49
2023-01-19T01:39:50.862Z,51.49
2023-01-19T01:40:52.661Z,51.49
2023-01-19T01:41:54.022Z,51.39
2023-01-19T01:42:55.053Z,51.37
2023-01-19T01:43:56.860Z,51.39
2023-01-19T01:44:58.727Z,51.37
2023-01-19T01:46:00.640Z,51.37
2023-01-19T01:47:02.520Z,51.37
2023-01-19T01:48:03.272Z,51.37
2023-01-19T01:49:05.073Z,51.26
2023-01-19T01:50:06.875Z,51.39
2023-01-19T01:51:08.678Z,51.37
2023-01-19T01:52:10.516Z,51.39
2023-01-19T01:53:12.548Z,51.37
2023-01-19T01:54:12.394Z,51.39
2023-01-19T01:55:14.412Z,51.49
2023-01-19T01:56:16.210Z,51.46
2023-01-19T01:57:16.342Z,51.37
2023-01-19T01:58:18.138Z,51.37
2023-01-19T01:59:19.943Z,51.26
2023-01-19T02:00:21.763Z,51.37
2023-01-19T02:01:22.584Z,51.37
2023-01-19T02:02:23.576Z,51.26
2023-01-19T02:03:23.950Z,51.26
2023-01-19T02:04:25.718Z,51.37
2023-01-19T02:05:27.524Z,51.26
2023-01-19T02:06:29.314Z,51.37
2023-01-19T02:07:30.077Z,51.26
2023-01-19T02:08:31.600Z,51.46
2023-01-19T02:09:33.393Z,51.37
2023-01-19T02:10:34.149Z,51.37
2023-01-19T02:11:35.636Z,51.46
2023-01-19T02:12:37.449Z,51.37
2023-01-19T02:13:38.193Z,51.37
2023-01-19T02:14:39.993Z,51.39
2023-01-19T02:15:41.821Z,51.46
2023-01-19T02:16:43.720Z,51.37
2023-01-19T02:17:45.593Z,51.49
2023-01-19T02:18:47.395Z,51.46
2023-01-19T02:19:48.140Z,51.37
2023-01-19T02:20:48.919Z,51.37
2023-01-19T02:21:49.282Z,51.37
2023-01-19T02:22:51.145Z,51.49
2023-01-19T02:23:53.158Z,51.37
2023-01-19T02:24:54.971Z,51.37
2023-01-19T02:25:56.764Z,51.37
2023-01-19T02:26:57.509Z,51.37
2023-01-19T02:27:59.315Z,51.37
2023-01-19T02:29:01.114Z,51.46
2023-01-19T02:30:02.915Z,51.37
2023-01-19T02:31:04.785Z,51.37
2023-01-19T02:32:05.536Z,51.49
2023-01-19T02:33:07.350Z,51.37
2023-01-19T02:34:09.154Z,51.37
2023-01-19T02:35:11.013Z,51.37
2023-01-19T02:36:12.806Z,51.37
2023-01-19T02:37:14.609Z,51.37
2023-01-19T02:38:15.364Z,51.26
2023-01-19T02:39:17.156Z,51.37
2023-01-19T02:40:18.978Z,51.37
2023-01-19T02:41:20.776Z,51.26
2023-01-19T02:42:22.583Z,51.37
2023-01-19T02:43:23.341Z,51.49
2023-01-19T02:44:25.138Z,51.37
2023-01-19T02:45:26.934Z,51.26
2023-01-19T02:46:28.769Z,51.26
2023-01-19T02:47:30.562Z,51.49
2023-01-19T02:48:31.321Z,51.39
2023-01-19T02:49:33.117Z,51.37
2023-01-19T02:50:34.916Z,51.39
2023-01-19T02:51:36.737Z,51.37
2023-01-19T02:52:38.534Z,51.37
2023-01-19T02:53:39.290Z,51.39
2023-01-19T02:54:41.094Z,51.37
2023-01-19T02:55:42.883Z,51.37
2023-01-19T02:56:44.691Z,51.39
2023-01-19T02:57:46.706Z,51.37
2023-01-19T02:58:47.471Z,51.37
2023-01-19T02:59:49.283Z,51.37
2023-01-19T03:00:51.121Z,51.37
2023-01-19T03:01:53.094Z,51.26
2023-01-19T03:02:55.067Z,51.39
2023-01-19T03:03:56.887Z,51.49
2023-01-19T03:04:56.878Z,51.49
2023-01-19T03:05:58.625Z,51.49
2023-01-19T03:07:00.417Z,51.39
2023-01-19T03:08:01.154Z,51.37
2023-01-19T03:09:02.077Z,51.37
2023-01-19T03:10:02.343Z,51.26
2023-01-19T03:11:04.196Z,51.39
2023-01-19T03:12:06.002Z,51.39
2023-01-19T03:13:06.193Z,51.37
2023-01-19T03:14:08.036Z,51.26
2023-01-19T03:15:09.834Z,51.26
2023-01-19T03:16:10.703Z,51.26
2023-01-19T03:17:11.587Z,51.26
2023-01-19T03:18:11.914Z,51.46
2023-01-19T03:19:13.893Z,51.37
2023-01-19T03:20:15.689Z,51.37
2023-01-19T03:21:16.435Z,51.37
2023-01-19T03:22:18.257Z,51.39
2023-01-19T03:23:20.071Z,51.49
2023-01-19T03:24:21.901Z,51.49
2023-01-19T03:25:23.694Z,51.49
2023-01-19T03:26:24.438Z,51.39
2023-01-19T03:27:26.030Z,51.49
2023-01-19T03:28:27.841Z,51.49
2023-01-19T03:29:28.594Z,51.39
2023-01-19T03:30:30.081Z,51.39
2023-01-19T03:31:31.876Z,51.49
2023-01-19T03:32:32.646Z,51.46
2023-01-19T03:33:34.448Z,51.46
2023-01-19T03:34:36.254Z,51.39
2023-01-19T03:35:38.053Z,51.49
2023-01-19T03:36:38.800Z,51.49
2023-01-19T03:37:40.604Z,51.49
2023-01-19T03:38:42.406Z,51.59
2023-01-19T03:39:44.228Z,51.49
2023-01-19T03:40:46.040Z,51.49
2023-01-19T03:41:46.782Z,51.37
2023-01-19T03:42:48.583Z,51.37
2023-01-19T03:43:50.383Z,51.37
2023-01-19T03:44:52.233Z,51.37
2023-01-19T03:45:54.056Z,51.39
2023-01-19T03:46:54.868Z,51.39
2023-01-19T03:47:56.671Z,51.49
2023-01-19T03:48:58.471Z,51.49
2023-01-19T03:50:00.290Z,51.49
2023-01-19T03:51:01.054Z,51.37
2023-01-19T03:52:02.859Z,51.37
2023-01-19T03:53:04.658Z,51.39
2023-01-19T03:54:06.466Z,51.37
2023-01-19T03:55:08.281Z,51.37
2023-01-19T03:56:09.031Z,51.46
2023-01-19T03:57:10.823Z,51.49
2023-01-19T03:58:12.613Z,51.49
2023-01-19T03:59:14.411Z,51.49
2023-01-19T04:00:15.184Z,51.37
2023-01-19T04:01:17.038Z,51.39
2023-01-19T04:02:18.921Z,51.49
2023-01-19T04:03:20.742Z,51.37
2023-01-19T04:04:22.533Z,51.37
2023-01-19T04:05:24.348Z,51.39
2023-01-19T04:06:25.084Z,51.49
2023-01-19T04:07:26.548Z,51.46
2023-01-19T04:08:28.348Z,51.37
2023-01-19T04:09:28.378Z,51.49
2023-01-19T04:10:28.492Z,51.37
2023-01-19T04:11:30.410Z,51.37
2023-01-19T04:12:32.215Z,51.37
2023-01-19T04:13:32.961Z,51.46
2023-01-19T04:14:34.454Z,51.46
2023-01-19T04:15:36.329Z,51.37
2023-01-19T04:16:37.094Z,51.39
2023-01-19T04:17:38.881Z,51.39
2023-01-19T04:18:40.706Z,51.37
2023-01-19T04:19:42.520Z,51.26
2023-01-19T04:20:44.393Z,51.26
2023-01-19T04:21:45.136Z,51.26
2023-01-19T04:22:46.938Z,51.06
2023-01-19T04:23:48.726Z,51.17
2023-01-19T04:24:50.530Z,51.17
2023-01-19T04:25:51.296Z,51.19
2023-01-19T04:26:53.093Z,51.29
2023-01-19T04:27:54.896Z,51.29
2023-01-19T04:28:56.682Z,51.29
2023-01-19T04:29:58.480Z,51.29
2023-01-19T04:30:59.281Z,51.19
2023-01-19T04:32:01.100Z,51.19
2023-01-19T04:33:03.365Z,51.17
2023-01-19T04:34:03.279Z,51.29
2023-01-19T04:35:05.077Z,51.17
2023-01-19T04:36:06.879Z,51.19
2023-01-19T04:37:08.674Z,51.17
2023-01-19T04:38:10.472Z,51.06
2023-01-19T04:39:11.208Z,51.17
2023-01-19T04:40:13.009Z,51.06
2023-01-19T04:41:14.829Z,51.17
2023-01-19T04:42:16.634Z,51.17
2023-01-19T04:43:18.432Z,51.17
2023-01-19T04:44:20.446Z,51.17
2023-01-19T04:45:20.737Z,51.17
2023-01-19T04:46:22.688Z,51.17
2023-01-19T04:47:24.522Z,51.17
2023-01-19T04:48:26.383Z,51.06
2023-01-19T04:49:27.150Z,51.17
2023-01-19T04:50:28.932Z,51.17
2023-01-19T04:51:30.748Z,51.17
2023-01-19T04:52:32.582Z,51.26
2023-01-19T04:53:34.387Z,51.26
2023-01-19T04:54:35.203Z,51.26
2023-01-19T04:55:35.986Z,51.17
2023-01-19T04:56:36.347Z,51.17
2023-01-19T04:57:38.161Z,51.17
2023-01-19T04:58:39.958Z,51.17
2023-01-19T04:59:41.767Z,51.17
2023-01-19T05:00:43.760Z,51.17
2023-01-19T05:01:44.576Z,51.26
2023-01-19T05:02:45.449Z,51.17
2023-01-19T05:03:45.663Z,51.17
2023-01-19T05:04:47.581Z,51.17
2023-01-19T05:05:49.371Z,51.17
2023-01-19T05:06:51.179Z,51.26
2023-01-19T05:07:51.923Z,51.26
2023-01-19T05:08:53.722Z,51.17
2023-01-19T05:09:55.523Z,51.26
2023-01-19T05:10:57.336Z,51.26
2023-01-19T05:11:59.151Z,51.26
2023-01-19T05:13:00.323Z,51.17
2023-01-19T05:14:01.345Z,51.17
2023-01-19T05:15:03.215Z,51.17
2023-01-19T05:16:05.064Z,51.06
2023-01-19T05:17:05.850Z,51.17
2023-01-19T05:18:07.632Z,51.17
2023-01-19T05:19:09.450Z,51.17
2023-01-19T05:20:11.281Z,51.17
2023-01-19T05:21:13.067Z,51.17
2023-01-19T05:22:13.862Z,51.17
2023-01-19T05:23:15.658Z,51.17
2023-01-19T05:24:17.459Z,51.17
2023-01-19T05:25:19.253Z,51.26
2023-01-19T05:26:21.060Z,51.26
2023-01-19T05:27:21.832Z,51.37
2023-01-19T05:28:23.280Z,51.26
2023-01-19T05:29:25.092Z,51.26
2023-01-19T05:30:25.866Z,51.26
2023-01-19T05:31:27.813Z,51.26
2023-01-19T05:32:29.687Z,51.26
2023-01-19T05:33:31.497Z,51.26
2023-01-19T05:34:33.299Z,51.26
2023-01-19T05:35:36.430Z,51.17
2023-01-19T05:36:35.318Z,51.26
2023-01-19T05:37:37.299Z,51.26
2023-01-19T05:38:39.318Z,51.26
2023-01-19T05:39:41.141Z,51.17
2023-01-19T05:40:42.959Z,51.17
2023-01-19T05:41:43.703Z,51.17
2023-01-19T05:42:45.512Z,51.17
2023-01-19T05:43:47.387Z,51.17
2023-01-19T05:44:49.192Z,51.17
2023-01-19T05:45:50.987Z,51.26
2023-01-19T05:46:51.853Z,51.17
2023-01-19T05:47:52.653Z,51.26
2023-01-19T05:48:52.900Z,51.17
2023-01-19T05:49:54.745Z,51.17
2023-01-19T05:50:56.569Z,51.17
2023-01-19T05:51:57.224Z,51.17
2023-01-19T05:52:59.330Z,51.26
2023-01-19T05:54:00.287Z,51.37
2023-01-19T05:55:01.030Z,51.37
2023-01-19T05:56:02.521Z,51.37
2023-01-19T05:57:04.356Z,51.26
2023-01-19T05:58:05.123Z,51.26
2023-01-19T05:59:06.856Z,51.26
2023-01-19T06:00:08.653Z,51.26
2023-01-19T06:01:10.498Z,51.26
2023-01-19T06:02:12.429Z,51.26
2023-01-19T06:03:12.654Z,51.17
2023-01-19T06:04:14.378Z,51.26
2023-01-19T06:05:16.193Z,51.26
2023-01-19T06:06:16.965Z,51.26
2023-01-19T06:07:18.758Z,51.26
2023-01-19T06:08:20.580Z,51.26
2023-01-19T06:09:22.372Z,51.17
2023-01-19T06:10:24.171Z,51.17
2023-01-19T06:11:24.905Z,51.17
2023-01-19T06:12:26.710Z,51.17
2023-01-19T06:13:28.540Z,51.26
2023-01-19T06:14:30.362Z,51.17
2023-01-19T06:15:32.175Z,51.26
2023-01-19T06:16:34.087Z,51.26
2023-01-19T06:17:34.834Z,51.26
2023-01-19T06:18:36.651Z,51.26
2023-01-19T06:19:38.659Z,51.17
2023-01-19T06:20:40.463Z,51.26
2023-01-19T06:21:42.281Z,51.17
2023-01-19T06:22:44.187Z,51.26
2023-01-19T06:23:46.016Z,51.26
2023-01-19T06:24:46.757Z,51.17
2023-01-19T06:25:48.558Z,51.17
2023-01-19T06:26:50.369Z,51.17
2023-01-19T06:27:52.159Z,51.17
2023-01-19T06:28:52.905Z,51.17
2023-01-19T06:29:54.720Z,51.17
2023-01-19T06:30:56.568Z,51.17
2023-01-19T06:31:58.449Z,51.17
2023-01-19T06:33:00.534Z,51.26
2023-01-19T06:34:00.446Z,51.26
2023-01-19T06:35:02.059Z,51.26
2023-01-19T06:36:03.897Z,51.17
2023-01-19T06:37:04.682Z,51.06
2023-01-19T06:38:06.460Z,51.06
2023-01-19T06:39:08.273Z,50.96
2023-01-19T06:40:10.066Z,50.86
2023-01-19T06:41:11.861Z,50.96
2023-01-19T06:42:12.621Z,50.86
2023-01-19T06:43:14.418Z,50.86
2023-01-19T06:44:16.224Z,50.76
2023-01-19T06:45:18.016Z,50.76
2023-01-19T06:46:19.799Z,50.86
2023-01-19T06:47:20.550Z,50.86
2023-01-19T06:48:22.374Z,50.96
2023-01-19T06:49:24.188Z,50.86
2023-01-19T06:50:26.025Z,50.96
2023-01-19T06:51:27.827Z,50.96
2023-01-19T06:52:29.849Z,50.96
2023-01-19T06:53:31.652Z,50.96
2023-01-19T06:54:33.473Z,50.96
2023-01-19T06:55:34.223Z,50.86
2023-01-19T06:56:36.017Z,50.86
2023-01-19T06:57:38.002Z,50.96
2023-01-19T06:58:39.815Z,50.96
2023-01-19T06:59:41.633Z,50.96
2023-01-19T07:00:43.472Z,50.96
2023-01-19T07:01:45.473Z,51.06
2023-01-19T07:02:47.399Z,51.06
2023-01-19T07:03:48.138Z,50.96
2023-01-19T07:04:49.955Z,50.96
2023-01-19T07:05:51.758Z,50.96
2023-01-19T07:06:53.589Z,51.17
2023-01-19T07:07:55.420Z,51.06
2023-01-19T07:08:56.163Z,51.17
2023-01-19T07:09:57.976Z,51.17
2023-01-19T07:11:25.729Z,51.06
2023-01-19T07:12:01.784Z,51.17
2023-01-19T07:13:04.043Z,51.17
2023-01-19T07:14:03.877Z,51.17
2023-01-19T07:15:05.577Z,51.06
2023-01-19T07:16:08.253Z,51.06
2023-01-19T07:17:08.033Z,51.06
2023-01-19T07:18:09.504Z,51.06
2023-01-19T07:19:11.312Z,51.17
2023-01-19T07:20:12.132Z,51.06
2023-01-19T07:21:13.948Z,51.06
2023-01-19T07:22:15.748Z,50.96
2023-01-19T07:23:17.788Z,51.06
2023-01-19T07:24:19.641Z,50.96
2023-01-19T07:25:21.478Z,50.96
2023-01-19T07:26:22.280Z,50.96
2023-01-19T07:27:24.065Z,50.96
2023-01-19T07:28:25.880Z,51.06
2023-01-19T07:29:27.714Z,50.96
2023-01-19T07:30:29.660Z,51.06
2023-01-19T07:31:31.644Z,51.06
2023-01-19T07:32:31.618Z,51.06
2023-01-19T07:33:33.540Z,50.84
2023-01-19T07:34:35.335Z,50.86
2023-01-19T07:35:36.128Z,50.86
2023-01-19T07:36:37.933Z,50.86
2023-01-19T07:37:39.728Z,50.96
2023-01-19T07:38:41.540Z,51.06
2023-01-19T07:39:43.338Z,51.06
2023-01-19T07:40:44.099Z,51.06
2023-01-19T07:41:45.884Z,50.96
2023-01-19T07:42:47.717Z,50.86
2023-01-19T07:43:49.527Z,50.86
2023-01-19T07:44:51.344Z,50.76
2023-01-19T07:45:52.189Z,50.56
2023-01-19T07:46:54.058Z,50.46
2023-01-19T07:47:55.873Z,50.46
2023-01-19T07:48:57.667Z,50.66
2023-01-19T07:49:59.459Z,50.66
2023-01-19T07:51:00.222Z,50.86
2023-01-19T07:52:02.018Z,50.96
2023-01-19T07:53:03.848Z,50.86
2023-01-19T07:54:05.677Z,51.06
2023-01-19T07:55:07.468Z,51.06
2023-01-19T07:56:08.232Z,51.06
2023-01-19T07:57:10.022Z,50.96
2023-01-19T07:58:11.830Z,50.94
2023-01-19T07:59:13.629Z,50.84
2023-01-19T08:00:15.425Z,50.94
2023-01-19T08:01:16.304Z,51.04
2023-01-19T08:02:18.199Z,50.94
2023-01-19T08:03:19.993Z,50.94
2023-01-19T08:04:21.942Z,50.94
2023-01-19T08:05:23.768Z,50.94
2023-01-19T08:06:25.597Z,50.94
2023-01-19T08:07:26.358Z,50.94
2023-01-19T08:08:28.157Z,50.84
2023-01-19T08:09:29.977Z,50.84
2023-01-19T08:10:31.814Z,50.94
2023-01-19T08:11:33.640Z,50.94
2023-01-19T08:12:34.385Z,50.84
2023-01-19T08:13:36.196Z,50.84
2023-01-19T08:14:37.992Z,50.94
2023-01-19T08:15:39.824Z,50.84
2023-01-19T08:16:41.657Z,50.94
2023-01-19T08:17:42.409Z,50.84
2023-01-19T08:18:43.881Z,50.84
2023-01-19T08:19:45.675Z,50.84
2023-01-19T08:20:46.406Z,50.94
2023-01-19T08:21:48.250Z,50.94
2023-01-19T08:22:50.082Z,50.94
2023-01-19T08:23:51.908Z,50.94
2023-01-19T08:24:52.697Z,50.94
2023-01-19T08:25:54.507Z,50.94
2023-01-19T08:26:56.341Z,50.94
2023-01-19T08:27:58.145Z,51.04
2023-01-19T08:29:00.158Z,50.94
2023-01-19T08:30:01.959Z,51.04
2023-01-19T08:31:18.368Z,51.04
2023-01-19T08:32:04.667Z,51.04
2023-01-19T08:33:06.537Z,51.04
2023-01-19T08:34:08.354Z,50.94
2023-01-19T08:35:10.155Z,50.94
2023-01-19T08:36:10.895Z,50.94
2023-01-19T08:37:12.747Z,51.04
2023-01-19T08:38:14.553Z,50.94
2023-01-19T08:39:16.352Z,51.04
2023-01-19T08:40:18.176Z,51.04
2023-01-19T08:41:18.273Z,51.04
2023-01-19T08:42:20.355Z,51.04
2023-01-19T08:43:22.157Z,50.94
2023-01-19T08:44:22.927Z,50.94
2023-01-19T08:45:24.728Z,51.04
2023-01-19T08:46:26.560Z,51.04
2023-01-19T08:47:28.424Z,51.04
2023-01-19T08:48:30.237Z,51.04
2023-01-19T08:49:30.994Z,51.04
2023-01-19T08:50:32.809Z,51.04
2023-01-19T08:51:34.624Z,51.04
2023-01-19T08:52:36.438Z,51.04
2023-01-19T08:53:38.240Z,51.04
2023-01-19T08:54:38.980Z,51.14
2023-01-19T08:55:40.870Z,51.14
2023-01-19T08:56:42.669Z,51.14
2023-01-19T08:57:44.486Z,51.04
2023-01-19T08:58:51.193Z,51.14
2023-01-19T08:59:46.541Z,51.14
2023-01-19T09:00:48.415Z,51.14
2023-01-19T09:01:50.468Z,51.14
2023-01-19T09:02:50.318Z,51.14
2023-01-19T09:03:52.333Z,51.14
2023-01-19T09:04:54.131Z,51.14
2023-01-19T09:05:55.956Z,51.14
2023-01-19T09:06:56.727Z,51.24
2023-01-19T09:07:58.819Z,51.24
2023-01-19T09:08:59.761Z,51.24
2023-01-19T09:10:00.519Z,51.24
2023-01-19T09:11:02.352Z,51.24
2023-01-19T09:12:04.152Z,51.24
2023-01-19T09:13:05.974Z,51.01
2023-01-19T09:14:07.784Z,51.04
2023-01-19T09:15:09.708Z,51.01
2023-01-19T09:16:10.523Z,51.04
2023-01-19T09:17:12.337Z,51.14
2023-01-19T09:18:14.151Z,51.12
2023-01-19T09:19:15.967Z,51.01
2023-01-19T09:20:17.775Z,51.01
2023-01-19T09:21:19.817Z,51.14
2023-01-19T09:22:20.584Z,51.14
2023-01-19T09:23:22.402Z,51.14
2023-01-19T09:24:24.196Z,51.04
2023-01-19T09:25:25.995Z,51.12
2023-01-19T09:26:27.925Z,51.01
2023-01-19T09:27:28.662Z,51.01
2023-01-19T09:28:30.499Z,51.14
2023-01-19T09:29:32.333Z,51.14
2023-01-19T09:30:34.187Z,51.01
2023-01-19T09:31:36.083Z,51.01
2023-01-19T09:32:37.890Z,51.01
2023-01-19T09:33:38.656Z,51.01
2023-01-19T09:34:40.464Z,51.01
2023-01-19T09:35:42.294Z,51.01
2023-01-19T09:36:44.107Z,51.01
2023-01-19T09:37:45.925Z,51.01
2023-01-19T09:38:47.747Z,51.01
2023-01-19T09:39:48.762Z,51.01
2023-01-19T09:40:49.984Z,51.01
2023-01-19T09:41:51.817Z,51.01
2023-01-19T09:42:52.568Z,51.01
2023-01-19T09:43:54.378Z,50.92
2023-01-19T09:44:56.206Z,50.92
2023-01-19T09:45:58.003Z,50.92
2023-01-19T09:46:59.808Z,51.01
2023-01-19T09:48:01.048Z,51.01
2023-01-19T09:49:02.051Z,51.01
2023-01-19T09:50:03.845Z,51.01
2023-01-19T09:51:05.641Z,51.01
2023-01-19T09:52:06.381Z,51.01
2023-01-19T09:53:08.188Z,51.01
2023-01-19T09:54:10.009Z,50.92
2023-01-19T09:55:11.825Z,50.92
2023-01-19T09:56:13.640Z,51.01
2023-01-19T09:57:15.818Z,50.92
2023-01-19T09:58:15.511Z,50.92
2023-01-19T09:59:15.577Z,51.01
2023-01-19T10:00:17.423Z,51.01
2023-01-19T10:01:19.360Z,51.01
2023-01-19T10:02:21.204Z,51.01
2023-01-19T10:03:21.978Z,50.92
2023-01-19T10:04:24.164Z,50.92
2023-01-19T10:05:24.913Z,51.01
2023-01-19T10:06:25.660Z,50.92
2023-01-19T10:07:27.226Z,50.92
2023-01-19T10:08:29.035Z,50.92
2023-01-19T10:09:29.796Z,50.92
2023-01-19T10:10:31.591Z,50.92
2023-01-19T10:11:42.079Z,51.01
2023-01-19T10:12:35.172Z,50.92
2023-01-19T10:13:36.956Z,50.92
2023-01-19T10:14:37.724Z,50.92
2023-01-19T10:15:39.239Z,50.92
2023-01-19T10:16:41.038Z,50.92
2023-01-19T10:17:41.813Z,51.01
2023-01-19T10:18:43.619Z,50.81
2023-01-19T10:19:46.689Z,50.92
2023-01-19T10:20:45.553Z,51.01
2023-01-19T10:21:47.089Z,51.01
2023-01-19T10:22:48.889Z,50.92
2023-01-19T10:23:49.721Z,50.92
2023-01-19T10:24:51.536Z,50.92
2023-01-19T10:25:53.471Z,50.92
2023-01-19T10:26:55.314Z,50.92
2023-01-19T10:27:57.133Z,50.92
2023-01-19T10:28:57.894Z,50.92
2023-01-19T10:29:59.726Z,50.92
2023-01-19T10:31:01.744Z,50.92
2023-01-19T10:32:03.666Z,50.92
2023-01-19T10:33:05.485Z,50.81
2023-01-19T10:34:07.322Z,50.81
2023-01-19T10:35:08.087Z,50.81
2023-01-19T10:36:09.881Z,50.81
2023-01-19T10:37:11.683Z,50.79
2023-01-19T10:38:13.534Z,50.69
2023-01-19T10:39:15.353Z,50.79
2023-01-19T10:40:15.888Z,50.69
2023-01-19T10:41:17.442Z,50.81
2023-01-19T10:42:19.316Z,50.69
2023-01-19T10:43:21.241Z,50.59
2023-01-19T10:44:21.992Z,50.59
2023-01-19T10:45:24.016Z,50.59
2023-01-19T10:46:26.050Z,50.69
2023-01-19T10:47:27.873Z,50.69
2023-01-19T10:48:29.688Z,50.59
2023-01-19T10:49:31.521Z,50.69
2023-01-19T10:50:31.581Z,50.69
2023-01-19T10:51:33.410Z,50.81
2023-01-19T10:52:35.215Z,50.79
2023-01-19T10:53:36.005Z,50.92
2023-01-19T10:54:37.816Z,50.81
2023-01-19T10:55:39.669Z,50.92
2023-01-19T10:56:41.528Z,51.01
2023-01-19T10:57:43.405Z,51.01
2023-01-19T10:58:45.320Z,50.81
2023-01-19T10:59:45.295Z,50.79
2023-01-19T11:00:45.343Z,50.79
2023-01-19T11:01:47.498Z,50.89
2023-01-19T11:02:47.426Z,50.89
2023-01-19T11:03:49.149Z,50.79
2023-01-19T11:04:50.968Z,50.79
2023-01-19T11:05:52.789Z,50.89
2023-01-19T11:06:53.530Z,50.89
2023-01-19T11:07:55.337Z,50.79
2023-01-19T11:08:57.151Z,50.69
2023-01-19T11:09:58.941Z,50.69
2023-01-19T11:11:00.767Z,50.79
2023-01-19T11:12:01.515Z,50.79
2023-01-19T11:13:03.965Z,50.79
2023-01-19T11:14:05.075Z,50.79
2023-01-19T11:15:06.879Z,50.79
2023-01-19T11:16:09.977Z,50.69
2023-01-19T11:17:09.168Z,50.69
2023-01-19T11:18:10.834Z,50.59
2023-01-19T11:19:12.636Z,50.59
2023-01-19T11:20:13.377Z,50.59
2023-01-19T11:21:15.197Z,50.59
2023-01-19T11:22:17.003Z,50.49
2023-01-19T11:23:18.817Z,50.49
2023-01-19T11:24:20.622Z,50.49
2023-01-19T11:25:21.392Z,50.46
2023-01-19T11:26:23.216Z,50.37
2023-01-19T11:27:25.024Z,50.37
2023-01-19T11:28:26.833Z,50.49
2023-01-19T11:29:28.681Z,50.49
2023-01-19T11:30:29.423Z,50.49
2023-01-19T11:31:31.307Z,50.59
2023-01-19T11:32:33.162Z,50.59
2023-01-19T11:33:34.958Z,50.59
2023-01-19T11:34:36.761Z,50.69
2023-01-19T11:35:38.590Z,50.69
2023-01-19T11:36:39.369Z,50.59
2023-01-19T11:37:40.813Z,50.59
2023-01-19T11:38:42.639Z,50.59
2023-01-19T11:39:43.365Z,50.69
2023-01-19T11:40:45.169Z,50.59
2023-01-19T11:41:46.974Z,50.49
2023-01-19T11:42:48.766Z,50.46
2023-01-19T11:43:50.627Z,50.46
2023-01-19T11:44:51.402Z,50.37
2023-01-19T11:45:53.214Z,50.46
2023-01-19T11:46:55.139Z,50.37
2023-01-19T11:47:56.939Z,50.49
2023-01-19T11:48:58.739Z,50.49
2023-01-19T11:50:00.630Z,50.46
2023-01-19T11:51:02.728Z,50.59
2023-01-19T11:52:03.485Z,50.59
2023-01-19T11:53:05.296Z,50.59
2023-01-19T11:54:07.096Z,50.49
2023-01-19T11:55:08.897Z,50.46
2023-01-19T11:56:10.680Z,50.49
2023-01-19T11:57:11.455Z,50.49
2023-01-19T11:58:13.242Z,50.46
2023-01-19T11:59:15.036Z,50.37
2023-01-19T12:00:16.862Z,50.46
2023-01-19T12:01:18.714Z,50.57
2023-01-19T12:02:19.580Z,50.57
2023-01-19T12:03:20.418Z,50.37
2023-01-19T12:04:20.647Z,50.14
2023-01-19T12:05:22.483Z,49.94
2023-01-19T12:06:24.288Z,49.94
2023-01-19T12:07:25.067Z,49.84
2023-01-19T12:08:26.693Z,49.84
2023-01-19T12:09:28.495Z,50.07
2023-01-19T12:10:30.289Z,50.26
2023-01-19T12:11:32.085Z,50.37
2023-01-19T12:12:32.847Z,50.49
2023-01-19T12:13:34.646Z,50.46
2023-01-19T12:14:36.444Z,50.59
2023-01-19T12:15:38.276Z,50.46
2023-01-19T12:16:40.132Z,50.46
2023-01-19T12:17:40.899Z,50.46
2023-01-19T12:18:42.700Z,50.57
2023-01-19T12:19:44.513Z,50.67
2023-01-19T12:20:46.334Z,50.67
2023-01-19T12:21:48.139Z,50.57
2023-01-19T12:22:48.910Z,50.57
2023-01-19T12:23:50.714Z,50.57
2023-01-19T12:24:52.513Z,50.67
2023-01-19T12:25:55.010Z,50.67
2023-01-19T12:26:54.739Z,50.67
2023-01-19T12:27:56.562Z,50.67
2023-01-19T12:28:58.366Z,50.67
2023-01-19T12:30:00.197Z,50.67
2023-01-19T12:31:02.126Z,50.67
2023-01-19T12:32:03.993Z,50.76
2023-01-19T12:33:06.192Z,50.76
2023-01-19T12:34:06.894Z,50.76
2023-01-19T12:35:07.894Z,50.76
2023-01-19T12:36:09.709Z,50.67
2023-01-19T12:37:13.665Z,50.57
2023-01-19T12:38:13.455Z,50.67
2023-01-19T12:39:14.203Z,50.76
2023-01-19T12:40:16.014Z,50.96
2023-01-19T12:41:17.814Z,50.96
2023-01-19T12:42:21.348Z,50.96
2023-01-19T12:43:21.198Z,50.96
2023-01-19T12:44:21.969Z,51.07
2023-01-19T12:45:23.781Z,51.07
2023-01-19T12:46:27.867Z,50.96
2023-01-19T12:47:27.561Z,51.09
2023-01-19T12:48:29.367Z,51.19
2023-01-19T12:49:31.182Z,51.19
2023-01-19T12:50:31.926Z,51.09
2023-01-19T12:51:33.741Z,51.19
2023-01-19T12:52:35.550Z,51.19
2023-01-19T12:53:37.368Z,51.19
2023-01-19T12:54:39.151Z,51.07
2023-01-19T12:55:40.984Z,50.96
2023-01-19T12:56:41.725Z,50.96
2023-01-19T12:57:43.539Z,50.96
2023-01-19T12:58:45.344Z,50.87
2023-01-19T12:59:48.626Z,50.76
2023-01-19T13:00:51.705Z,50.54
2023-01-19T13:01:51.559Z,50.54
2023-01-19T13:02:53.485Z,50.54
2023-01-19T13:03:55.330Z,50.57
2023-01-19T13:04:57.124Z,50.67
2023-01-19T13:05:58.936Z,50.67
2023-01-19T13:07:00.746Z,50.87
2023-01-19T13:08:02.584Z,50.67
2023-01-19T13:09:04.439Z,50.67
2023-01-19T13:10:05.195Z,50.76
2023-01-19T13:11:06.995Z,50.67
2023-01-19T13:12:08.807Z,50.76